Linton-on-ouse, United Kingdom

11:08 AM BST on May 24, 2017 (GMT +0100)
Linton-On-Ouse Air Base | | Change Station

Elev 52 ft 54.05 °N, 1.25 °W | Updated 18 minutes ago

Scattered Clouds
Scattered Clouds
68 °F
Feels Like 68 °F
N
6
Wind Variable Wind from West

Today
High -- | Low -- °F
--% Chance of Precip.
Yesterday
High -- | Low -- °F
Precip. -- in
Pressure 30.24 in
Visibility 6.2 miles
Clouds Scattered Clouds 2500 ft
Dew Point 57 °F
Humidity 68%
Rainfall 0.00 in
Snow Depth Not available.
4:48 AM 9:16 PM
Waning Crescent, 3% visible
METAR EGXU 240950Z 27005KT 9999 SCT025 20/14 Q1024 BLU NOSIG
Pressure 30.24 in
Visibility 6.2 miles
Clouds Scattered Clouds 2500 ft
Dew Point 57 °F
Humidity 68%
Rainfall 0.00 in
Snow Depth Not available.
4:48 AM 9:16 PM
Waning Crescent, 3% visible
METAR EGXU 240950Z 27005KT 9999 SCT025 20/14 Q1024 BLU NOSIG

Get Severe Weather Alerts

Thanks for signing up!

Be on the lookout for a verification email in your inbox.

You'll start receiving the daily forecast at 6 AM.

×

10-Day Weather Forecast

×

Almanac

Astronomy

May. 24, 2017 Rise Set
Actual Time
Civil Twilight
Nautical Twilight
Astronomical Twilight
Moon
Length of Visible Light
Length of Day
Tomorrow will be .
, % of the Moon is Illuminated

Today's Extremes

Country Highs Country Lows

Community

WunderPhotos

Category 6

Welcome to Category 6. This is the collective home for Weather Underground's featured writeups by Dr. Jeff Masters (right), Bob Henson (left), Chris Burt, and other regular contributors.

Nearby

Air Quality

  Air Quality AQ Index Pollutant
Not available.

Snow Depth

Station Depth Elevation

Earthquake Activity

City Distance Mag. Time & Date
Minimum magnitude displayed is 2.5.

Coastal Water Temperatures

Place Temperature

Stations

Nearby Weather Stations

Station Location Temp. Windchill Dew Point Humidity Wind Precip. Elev Updated Type